createdAt,value
2022-08-14T00:02:27.202Z,8.70
2022-08-14T00:04:56.157Z,5.07
2022-08-14T00:07:24.076Z,3.88
2022-08-14T00:09:55.566Z,7.65
2022-08-14T00:12:48.189Z,4.25
2022-08-14T00:15:22.711Z,4.95
2022-08-14T00:17:53.395Z,5.10
2022-08-14T00:20:30.823Z,3.90
2022-08-14T00:23:11.953Z,6.10
2022-08-14T00:25:42.884Z,4.55
2022-08-14T00:28:15.621Z,6.05
2022-08-14T00:30:46.753Z,6.82
2022-08-14T00:33:16.663Z,5.10
2022-08-14T00:36:35.669Z,8.00
2022-08-14T00:38:34.731Z,10.02
2022-08-14T00:41:06.959Z,6.07
2022-08-14T00:43:41.684Z,7.75
2022-08-14T00:46:32.663Z,6.53
2022-08-14T00:49:02.252Z,6.93
2022-08-14T00:51:37.838Z,8.45
2022-08-14T00:54:17.102Z,7.60
2022-08-14T00:56:54.874Z,7.43
2022-08-14T00:59:24.710Z,8.77
2022-08-14T01:01:55.620Z,8.70
2022-08-14T01:04:37.691Z,8.13
2022-08-14T01:07:14.168Z,8.30
2022-08-14T01:09:42.646Z,13.07
2022-08-14T01:12:13.282Z,9.40
2022-08-14T01:14:55.431Z,10.48
2022-08-14T01:17:49.907Z,7.53
2022-08-14T01:20:35.906Z,7.55
2022-08-14T01:23:16.299Z,8.93
2022-08-14T01:25:49.209Z,9.40
2022-08-14T01:28:46.271Z,8.02
2022-08-14T01:31:12.218Z,8.18
2022-08-14T01:33:59.859Z,19.85
2022-08-14T01:36:49.057Z,8.98
2022-08-14T01:39:18.967Z,10.25
2022-08-14T01:41:56.280Z,10.63
2022-08-14T01:44:31.180Z,12.98
2022-08-14T01:47:05.931Z,9.60
2022-08-14T01:49:35.737Z,9.77
2022-08-14T01:52:34.462Z,10.30
2022-08-14T01:55:06.683Z,11.57
2022-08-14T01:58:00.809Z,10.77
2022-08-14T02:00:27.665Z,10.43
2022-08-14T02:02:56.936Z,13.10
2022-08-14T02:05:29.500Z,11.52
2022-08-14T02:08:09.392Z,12.38
2022-08-14T02:10:46.411Z,11.70
2022-08-14T02:13:16.751Z,14.13
2022-08-14T02:15:48.768Z,14.93
2022-08-14T02:18:18.617Z,13.15
2022-08-14T02:20:49.015Z,14.07
2022-08-14T02:23:28.982Z,15.35
2022-08-14T02:26:24.231Z,14.52
2022-08-14T02:28:56.487Z,15.35
2022-08-14T02:31:36.035Z,15.35
2022-08-14T02:34:22.324Z,17.05
2022-08-14T02:37:04.250Z,16.00
2022-08-14T02:39:38.240Z,16.52
2022-08-14T02:42:13.018Z,16.95
2022-08-14T02:44:48.766Z,15.60
2022-08-14T02:47:20.925Z,17.67
2022-08-14T02:49:54.793Z,16.13
2022-08-14T02:52:56.355Z,17.60
2022-08-14T02:55:15.623Z,16.35
2022-08-14T02:57:57.884Z,16.17
2022-08-14T03:00:35.278Z,16.38
2022-08-14T03:03:08.353Z,19.15
2022-08-14T03:05:41.670Z,17.02
2022-08-14T03:08:19.010Z,16.33
2022-08-14T03:10:50.207Z,27.20
2022-08-14T03:13:21.571Z,17.42
2022-08-14T03:15:55.499Z,19.02
2022-08-14T03:18:30.620Z,17.00
2022-08-14T03:21:01.934Z,17.95
2022-08-14T03:23:36.369Z,17.10
2022-08-14T03:26:08.577Z,18.02
2022-08-14T03:28:40.410Z,18.40
2022-08-14T03:31:13.345Z,18.50
2022-08-14T03:33:43.071Z,17.38
2022-08-14T03:37:38.144Z,17.70
2022-08-14T03:39:14.043Z,17.40
2022-08-14T03:41:51.662Z,17.90
2022-08-14T03:45:19.986Z,19.77
2022-08-14T03:47:08.402Z,19.52
2022-08-14T03:49:42.124Z,19.35
2022-08-14T03:52:28.154Z,17.75
2022-08-14T03:55:00.734Z,18.73
2022-08-14T03:57:32.749Z,20.45
2022-08-14T04:00:09.053Z,18.52
2022-08-14T04:02:47.325Z,18.30
2022-08-14T04:05:16.545Z,19.88
2022-08-14T04:07:49.749Z,19.10
2022-08-14T04:10:33.622Z,18.55
2022-08-14T04:13:05.940Z,18.40
2022-08-14T04:15:55.647Z,20.42
2022-08-14T04:18:23.297Z,18.33
2022-08-14T04:20:55.150Z,17.52
2022-08-14T04:23:29.476Z,18.00
2022-08-14T04:26:02.571Z,17.98
2022-08-14T04:29:01.945Z,17.85
2022-08-14T04:31:24.796Z,17.10
2022-08-14T04:34:20.829Z,16.23
2022-08-14T04:37:12.461Z,16.63
2022-08-14T04:39:58.883Z,15.70
2022-08-14T04:42:47.307Z,16.38
2022-08-14T04:45:23.593Z,16.67
2022-08-14T04:48:10.109Z,15.38
2022-08-14T04:50:44.602Z,16.25
2022-08-14T04:53:15.972Z,16.73
2022-08-14T04:55:47.808Z,15.60
2022-08-14T04:58:22.050Z,16.45
2022-08-14T05:01:06.294Z,15.20
2022-08-14T05:03:42.266Z,15.45
2022-08-14T05:06:38.072Z,15.15
2022-08-14T05:09:01.340Z,15.48
2022-08-14T05:11:33.433Z,14.90
2022-08-14T05:14:16.620Z,15.05
2022-08-14T05:16:59.290Z,15.95
2022-08-14T05:19:31.850Z,16.67
2022-08-14T05:22:16.950Z,15.63
2022-08-14T05:24:49.633Z,15.57
2022-08-14T05:27:23.301Z,15.50
2022-08-14T05:29:55.097Z,15.27
2022-08-14T05:32:27.624Z,16.20
2022-08-14T05:34:58.139Z,16.67
2022-08-14T05:37:26.595Z,15.00
2022-08-14T05:39:55.380Z,15.10
2022-08-14T05:42:29.477Z,15.43
2022-08-14T05:45:02.141Z,14.95
2022-08-14T05:47:39.159Z,15.13
2022-08-14T05:50:18.686Z,15.80
2022-08-14T05:52:50.348Z,15.73
2022-08-14T05:55:22.907Z,15.23
2022-08-14T05:57:59.361Z,15.00
2022-08-14T06:00:36.870Z,16.23
2022-08-14T06:03:11.004Z,15.77
2022-08-14T06:05:39.924Z,16.33
2022-08-14T06:08:31.215Z,16.58
2022-08-14T06:11:07.737Z,18.35
2022-08-14T06:13:44.614Z,18.98
2022-08-14T06:16:17.836Z,17.40
2022-08-14T06:18:52.998Z,17.60
2022-08-14T06:21:24.603Z,19.65
2022-08-14T06:23:54.372Z,16.75
2022-08-14T06:26:22.762Z,17.75
2022-08-14T06:28:59.915Z,17.63
2022-08-14T06:31:28.096Z,18.45
2022-08-14T06:35:03.613Z,19.67
2022-08-14T06:36:45.912Z,17.15
2022-08-14T06:39:17.194Z,17.90
2022-08-14T06:41:57.820Z,17.63
2022-08-14T06:44:32.307Z,17.50
2022-08-14T06:47:01.990Z,21.20
2022-08-14T06:49:42.761Z,19.88
2022-08-14T06:52:15.260Z,17.95
2022-08-14T06:54:44.191Z,19.77
2022-08-14T06:57:12.656Z,16.38
2022-08-14T06:59:42.191Z,17.00
2022-08-14T07:02:28.809Z,16.48
2022-08-14T07:05:20.776Z,16.35
2022-08-14T07:07:52.199Z,15.70
2022-08-14T07:10:25.652Z,15.70
2022-08-14T07:13:01.533Z,16.55
2022-08-14T07:15:33.865Z,14.90
2022-08-14T07:18:03.603Z,16.30
2022-08-14T07:20:34.490Z,14.68
2022-08-14T07:23:08.606Z,15.45
2022-08-14T07:25:42.278Z,14.43
2022-08-14T07:28:20.821Z,14.35
2022-08-14T07:30:51.085Z,13.88
2022-08-14T07:33:24.677Z,14.00
2022-08-14T07:36:00.712Z,14.05
2022-08-14T07:38:36.231Z,13.52
2022-08-14T07:41:11.846Z,13.65
2022-08-14T07:43:47.404Z,14.40
2022-08-14T07:46:29.393Z,13.43
2022-08-14T07:48:59.140Z,11.75
2022-08-14T07:51:34.365Z,12.10
2022-08-14T07:54:11.311Z,14.15
2022-08-14T07:56:46.856Z,11.43
2022-08-14T07:59:18.714Z,10.90
2022-08-14T08:01:51.724Z,12.00
2022-08-14T08:04:27.071Z,18.30
2022-08-14T08:06:57.843Z,12.45
2022-08-14T08:09:32.371Z,12.90
2022-08-14T08:12:09.396Z,15.23
2022-08-14T08:14:56.665Z,12.57
2022-08-14T08:17:34.732Z,11.40
2022-08-14T08:20:11.798Z,11.93
2022-08-14T08:22:48.014Z,10.60
2022-08-14T08:25:18.859Z,9.02
2022-08-14T08:27:59.779Z,8.70
2022-08-14T08:30:29.008Z,8.50
2022-08-14T08:32:58.683Z,8.85
2022-08-14T08:35:46.524Z,8.65
2022-08-14T08:39:18.382Z,7.38
2022-08-14T08:41:11.165Z,8.90
2022-08-14T08:43:45.781Z,8.73
2022-08-14T08:46:21.518Z,10.55
2022-08-14T08:51:25.031Z,11.35
2022-08-14T08:54:02.153Z,11.60
2022-08-14T08:56:40.677Z,10.55
2022-08-14T08:59:22.031Z,15.95
2022-08-14T09:01:58.194Z,15.35
2022-08-14T09:04:27.415Z,12.43
2022-08-14T09:07:09.211Z,14.02
2022-08-14T09:09:56.898Z,12.75
2022-08-14T09:12:27.146Z,14.70
2022-08-14T09:15:00.881Z,12.43
2022-08-14T09:17:30.494Z,11.65
2022-08-14T09:20:01.971Z,11.57
2022-08-14T09:22:47.917Z,10.20
2022-08-14T09:25:19.598Z,10.30
2022-08-14T09:27:48.333Z,9.73
2022-08-14T09:30:32.748Z,10.20
2022-08-14T09:33:22.499Z,9.13
2022-08-14T09:36:18.482Z,8.15
2022-08-14T09:38:53.774Z,7.80
2022-08-14T09:42:20.352Z,7.90
2022-08-14T09:44:45.777Z,7.60
2022-08-14T09:47:18.793Z,7.40
2022-08-14T09:49:53.110Z,10.55
2022-08-14T09:52:33.981Z,9.43
2022-08-14T09:55:03.287Z,8.27
2022-08-14T09:57:33.308Z,7.82
2022-08-14T10:00:29.303Z,6.22
2022-08-14T10:03:05.585Z,5.28
2022-08-14T10:05:38.044Z,5.20
2022-08-14T10:08:26.110Z,5.65
2022-08-14T10:10:57.342Z,5.30
2022-08-14T10:13:52.959Z,4.85
2022-08-14T10:16:27.371Z,4.10
2022-08-14T10:19:09.485Z,5.28
2022-08-14T10:23:13.549Z,4.97
2022-08-14T10:24:36.774Z,4.50
2022-08-14T10:27:17.024Z,5.03
2022-08-14T10:29:50.125Z,5.65
2022-08-14T10:32:36.227Z,6.38
2022-08-14T10:35:14.488Z,6.65
2022-08-14T10:37:48.342Z,4.55
2022-08-14T10:40:43.394Z,4.90
2022-08-14T10:43:22.923Z,5.00
2022-08-14T10:45:59.773Z,5.40
2022-08-14T10:48:58.249Z,5.22
2022-08-14T10:51:30.110Z,4.82
2022-08-14T10:54:35.322Z,5.22
2022-08-14T10:56:57.520Z,4.30
2022-08-14T10:59:34.987Z,4.22
2022-08-14T11:02:45.300Z,5.07
2022-08-14T11:05:14.815Z,4.68
2022-08-14T11:07:56.352Z,4.97
2022-08-14T11:10:27.773Z,4.40
2022-08-14T11:12:59.337Z,4.95
2022-08-14T11:15:32.327Z,4.55
2022-08-14T11:18:02.198Z,5.72
2022-08-14T11:20:32.189Z,4.20
2022-08-14T11:23:02.827Z,4.20
2022-08-14T11:25:41.303Z,4.53
2022-08-14T11:28:19.239Z,4.18
2022-08-14T11:30:53.835Z,4.63
2022-08-14T11:33:29.813Z,4.53
2022-08-14T11:36:00.418Z,3.47
2022-08-14T11:38:37.861Z,3.63
2022-08-14T11:41:07.492Z,3.40
2022-08-14T11:43:41.731Z,4.28
2022-08-14T11:46:17.932Z,3.90
2022-08-14T11:49:05.787Z,3.92
2022-08-14T11:51:53.777Z,5.55
2022-08-14T11:54:34.294Z,3.78
2022-08-14T11:57:04.692Z,5.38
2022-08-14T11:59:34.015Z,4.32
2022-08-14T12:03:00.082Z,3.50
2022-08-14T12:05:00.545Z,3.63
2022-08-14T12:07:33.424Z,4.18
2022-08-14T12:10:26.560Z,4.22
2022-08-14T12:12:54.825Z,4.07
2022-08-14T12:15:31.412Z,4.00
2022-08-14T12:18:01.123Z,3.92
2022-08-14T12:20:38.721Z,4.32
2022-08-14T12:23:23.337Z,4.03
2022-08-14T12:26:39.883Z,4.10
2022-08-14T12:28:59.639Z,4.20
2022-08-14T12:31:36.414Z,4.03
2022-08-14T12:34:20.473Z,4.22
2022-08-14T12:37:05.711Z,3.85
2022-08-14T12:39:40.047Z,4.68
2022-08-14T12:42:34.610Z,3.78
2022-08-14T12:45:03.837Z,3.80
2022-08-14T12:47:32.549Z,3.70
2022-08-14T12:50:01.402Z,4.35
2022-08-14T12:52:36.217Z,3.40
2022-08-14T12:55:20.961Z,4.95
2022-08-14T12:57:53.721Z,3.95
2022-08-14T13:00:24.468Z,4.28
2022-08-14T13:02:56.479Z,4.57
2022-08-14T13:05:27.529Z,3.90
2022-08-14T13:08:32.043Z,3.40
2022-08-14T13:11:02.642Z,3.72
2022-08-14T13:13:34.426Z,3.33
2022-08-14T13:16:20.323Z,5.82
2022-08-14T13:18:58.371Z,3.83
2022-08-14T13:21:30.365Z,6.35
2022-08-14T13:24:20.886Z,3.78
2022-08-14T13:26:51.982Z,4.93
2022-08-14T13:29:23.119Z,4.78
2022-08-14T13:31:55.082Z,3.72
2022-08-14T13:34:25.894Z,3.58
2022-08-14T13:37:03.704Z,3.22
2022-08-14T13:39:36.200Z,3.60
2022-08-14T13:42:10.915Z,3.25
2022-08-14T13:44:43.013Z,3.78
2022-08-14T13:47:12.450Z,3.78
2022-08-14T13:49:57.555Z,3.50
2022-08-14T13:52:52.117Z,3.42
2022-08-14T13:55:19.740Z,4.22
2022-08-14T13:57:56.849Z,3.78
2022-08-14T14:00:53.264Z,3.70
2022-08-14T14:03:26.176Z,4.85
2022-08-14T14:06:00.116Z,3.85
2022-08-14T14:08:45.948Z,4.13
2022-08-14T14:11:20.930Z,3.45
2022-08-14T14:13:49.416Z,4.82
2022-08-14T14:16:25.928Z,3.45
2022-08-14T14:19:06.030Z,3.90
2022-08-14T14:21:36.016Z,4.10
2022-08-14T14:24:05.931Z,4.00
2022-08-14T14:26:36.316Z,4.05
2022-08-14T14:29:07.618Z,4.30
2022-08-14T14:31:38.872Z,4.13
2022-08-14T14:34:12.617Z,5.30
2022-08-14T14:37:24.402Z,3.83
2022-08-14T14:40:53.927Z,4.13
2022-08-14T14:42:51.855Z,3.45
2022-08-14T14:45:23.884Z,4.65
2022-08-14T14:47:59.173Z,3.58
2022-08-14T14:50:28.706Z,3.60
2022-08-14T14:53:12.226Z,3.97
2022-08-14T14:56:47.882Z,3.85
2022-08-14T14:58:35.582Z,3.72
2022-08-14T15:01:08.769Z,4.13
2022-08-14T15:03:40.527Z,4.03
2022-08-14T15:06:10.091Z,3.45
2022-08-14T15:08:56.920Z,6.20
2022-08-14T15:11:30.357Z,4.40
2022-08-14T15:14:55.328Z,3.50
2022-08-14T15:16:53.584Z,3.00
2022-08-14T15:19:27.660Z,5.32
2022-08-14T15:21:58.161Z,4.50
2022-08-14T15:24:27.227Z,8.18
2022-08-14T15:26:58.591Z,9.60
2022-08-14T15:29:28.534Z,14.52
2022-08-14T15:31:56.492Z,4.20
2022-08-14T15:34:43.367Z,4.18
2022-08-14T15:37:16.743Z,5.32
2022-08-14T15:39:45.464Z,3.50
2022-08-14T15:42:17.074Z,4.32
2022-08-14T15:44:58.033Z,6.05
2022-08-14T15:47:31.231Z,4.07
2022-08-14T15:50:01.636Z,4.20
2022-08-14T15:52:33.092Z,3.75
2022-08-14T15:55:04.582Z,5.50
2022-08-14T15:57:32.626Z,3.65
2022-08-14T16:00:40.837Z,6.95
2022-08-14T16:03:16.596Z,2.90
2022-08-14T16:05:46.030Z,3.55
2022-08-14T16:08:29.283Z,5.28
2022-08-14T16:11:00.708Z,4.90
2022-08-14T16:13:41.861Z,3.80
2022-08-14T16:16:46.996Z,3.72
2022-08-14T16:19:10.690Z,3.92
2022-08-14T16:22:02.193Z,4.85
2022-08-14T16:24:36.038Z,2.92
2022-08-14T16:27:33.654Z,3.58
2022-08-14T16:30:12.296Z,3.47
2022-08-14T16:32:57.443Z,4.78
2022-08-14T16:35:42.984Z,4.10
2022-08-14T16:38:35.784Z,3.35
2022-08-14T16:41:22.236Z,4.43
2022-08-14T16:43:54.242Z,3.28
2022-08-14T16:46:28.647Z,3.20
2022-08-14T16:49:00.012Z,3.70
2022-08-14T16:51:34.916Z,3.90
2022-08-14T16:54:33.769Z,3.65
2022-08-14T16:56:57.268Z,2.90
2022-08-14T16:59:30.500Z,2.75
2022-08-14T17:02:14.874Z,3.08
2022-08-14T17:04:49.149Z,3.58
2022-08-14T17:07:17.838Z,2.97
2022-08-14T17:09:48.676Z,4.85
2022-08-14T17:12:28.346Z,2.80
2022-08-14T17:15:10.757Z,4.10
2022-08-14T17:17:58.032Z,3.30
2022-08-14T17:20:53.769Z,6.55
2022-08-14T17:23:18.223Z,2.90
2022-08-14T17:25:50.727Z,2.85
2022-08-14T17:28:50.448Z,2.78
2022-08-14T17:31:12.291Z,2.95
2022-08-14T17:33:51.722Z,5.05
2022-08-14T17:36:24.008Z,3.00
2022-08-14T17:39:00.520Z,14.45
2022-08-14T17:41:37.893Z,5.53
2022-08-14T17:44:21.639Z,4.75
2022-08-14T17:46:55.130Z,3.10
2022-08-14T17:49:28.171Z,2.50
2022-08-14T17:52:07.337Z,2.92
2022-08-14T17:54:39.263Z,3.00
2022-08-14T17:57:20.000Z,3.03
2022-08-14T17:59:49.372Z,3.08
2022-08-14T18:02:22.712Z,2.88
2022-08-14T18:05:00.648Z,2.70
2022-08-14T18:07:59.412Z,2.60
2022-08-14T18:10:52.972Z,5.07
2022-08-14T18:13:10.605Z,4.25
2022-08-14T18:15:41.471Z,3.03
2022-08-14T18:18:16.131Z,2.75
2022-08-14T18:21:39.922Z,2.60
2022-08-14T18:23:33.986Z,4.00
2022-08-14T18:26:37.698Z,4.15
2022-08-14T18:29:01.062Z,5.25
2022-08-14T18:31:42.024Z,4.70
2022-08-14T18:34:30.878Z,4.75
2022-08-14T18:37:09.642Z,3.50
2022-08-14T18:40:02.791Z,4.95
2022-08-14T18:42:45.891Z,5.00
2022-08-14T18:45:19.042Z,4.20
2022-08-14T18:48:33.178Z,3.97
2022-08-14T18:51:45.577Z,3.60
2022-08-14T18:54:29.639Z,4.25
2022-08-14T18:57:03.447Z,2.60
2022-08-14T18:59:40.338Z,3.17
2022-08-14T19:02:44.350Z,5.18
2022-08-14T19:05:14.429Z,5.38
2022-08-14T19:07:43.589Z,4.50
2022-08-14T19:10:31.918Z,3.30
2022-08-14T19:13:12.068Z,3.45
2022-08-14T19:15:43.719Z,3.63
2022-08-14T19:18:26.331Z,3.35
2022-08-14T19:20:58.242Z,3.00
2022-08-14T19:23:42.448Z,3.08
2022-08-14T19:26:35.349Z,3.50
2022-08-14T19:29:36.078Z,3.75
2022-08-14T19:32:25.445Z,3.58
2022-08-14T19:34:59.816Z,3.17
2022-08-14T19:37:52.462Z,2.90
2022-08-14T19:40:34.035Z,3.03
2022-08-14T19:43:06.567Z,3.80
2022-08-14T19:45:39.916Z,5.05
2022-08-14T19:48:15.789Z,4.88
2022-08-14T19:50:46.780Z,5.38
2022-08-14T19:53:18.328Z,4.90
2022-08-14T19:55:59.031Z,6.30
2022-08-14T19:58:54.057Z,5.40
2022-08-14T20:01:36.446Z,4.00
2022-08-14T20:04:45.736Z,4.50
2022-08-14T20:07:04.414Z,8.27
2022-08-14T20:11:06.881Z,3.03
2022-08-14T20:12:35.375Z,8.60
2022-08-14T20:15:15.289Z,7.18
2022-08-14T20:17:53.175Z,6.25
2022-08-14T20:20:31.431Z,8.50
2022-08-14T20:23:11.593Z,6.05
2022-08-14T20:25:56.414Z,6.30
2022-08-14T20:28:35.991Z,2.60
2022-08-14T20:31:17.901Z,3.42
2022-08-14T20:34:18.733Z,2.80
2022-08-14T20:37:04.368Z,2.95
2022-08-14T20:39:38.200Z,6.85
2022-08-14T20:42:28.629Z,4.78
2022-08-14T20:45:19.014Z,6.03
2022-08-14T20:47:53.621Z,4.13
2022-08-14T20:50:28.635Z,5.85
2022-08-14T20:52:58.185Z,3.47
2022-08-14T20:55:32.410Z,3.78
2022-08-14T20:58:03.894Z,8.52
2022-08-14T21:00:52.671Z,4.78
2022-08-14T21:03:36.643Z,3.63
2022-08-14T21:07:22.900Z,4.68
2022-08-14T21:10:05.403Z,4.45
2022-08-14T21:12:33.749Z,5.38
2022-08-14T21:15:03.143Z,2.30
2022-08-14T21:17:31.283Z,2.65
2022-08-14T21:20:21.273Z,5.00
2022-08-14T21:22:52.406Z,9.52
2022-08-14T21:29:26.320Z,2.60
2022-08-14T21:31:55.546Z,9.40
2022-08-14T21:34:31.049Z,4.03
2022-08-14T21:37:09.842Z,2.30
2022-08-14T21:39:38.277Z,5.20
2022-08-14T21:42:06.813Z,3.72
2022-08-14T21:44:43.543Z,5.22
2022-08-14T21:47:13.431Z,5.70
2022-08-14T21:49:46.274Z,4.50
2022-08-14T21:52:49.832Z,3.35
2022-08-14T21:55:10.535Z,5.07
2022-08-14T21:58:44.502Z,3.60
2022-08-14T22:00:35.415Z,6.05
2022-08-14T22:03:09.005Z,9.40
2022-08-14T22:05:38.647Z,4.70
2022-08-14T22:08:12.014Z,5.22
2022-08-14T22:10:42.293Z,4.97
2022-08-14T22:13:11.290Z,4.97
2022-08-14T22:15:43.732Z,3.97
2022-08-14T22:18:20.258Z,4.50
2022-08-14T22:20:53.346Z,5.25
2022-08-14T22:23:24.783Z,6.22
2022-08-14T22:25:55.184Z,4.82
2022-08-14T22:28:27.260Z,5.75
2022-08-14T22:31:03.602Z,6.53
2022-08-14T22:33:39.739Z,5.90
2022-08-14T22:36:33.609Z,3.80
2022-08-14T22:39:04.927Z,7.25
2022-08-14T22:41:42.652Z,4.10
2022-08-14T22:44:15.011Z,5.07
2022-08-14T22:46:45.161Z,11.27
2022-08-14T22:50:31.239Z,3.72
2022-08-14T22:52:19.123Z,7.45
2022-08-14T22:54:58.792Z,5.68
2022-08-14T22:57:37.732Z,6.60
2022-08-14T23:00:14.257Z,4.40
2022-08-14T23:02:43.423Z,7.65
2022-08-14T23:05:15.184Z,3.85
2022-08-14T23:08:58.288Z,4.70
2022-08-14T23:10:34.814Z,8.63
2022-08-14T23:13:04.716Z,5.40
2022-08-14T23:15:34.000Z,6.28
2022-08-14T23:18:03.435Z,4.78
2022-08-14T23:20:36.208Z,6.88
2022-08-14T23:23:12.981Z,4.13
2022-08-14T23:25:58.700Z,7.93
2022-08-14T23:28:57.098Z,9.13
2022-08-14T23:31:36.107Z,6.07
2022-08-14T23:34:06.837Z,5.97
2022-08-14T23:36:38.079Z,6.28
2022-08-14T23:39:24.286Z,6.93
2022-08-14T23:41:54.425Z,5.57
2022-08-14T23:44:24.244Z,6.38
2022-08-14T23:46:57.088Z,5.85
2022-08-14T23:49:56.887Z,8.70
2022-08-14T23:52:55.721Z,8.10
2022-08-14T23:55:11.028Z,6.07
2022-08-14T23:57:44.291Z,7.28
